首页
METAR-TAF:

METAR-TAF

机场 :

奥黑尔国际机场

芝加哥, 伊利诺伊州, 美国

纬度: 41-58-47N, 经度: 087-54-16W, 海拔: 203米

当前天气观测

该预报发布于19分钟前的22:51 UTC
风速6节,风向
温度 26°C
湿度 45%
气压 1007 hPa
能見度: 16.1公里
少量云层高于6000英尺
少量云层高于11000英尺
多云层高于25000英尺

METAR: KORD 232251Z 10006KT 10SM FEW060 FEW110 BKN250 26/13 A2975 RMK AO2 SLP072 T02610133

时间: 18:10 (23:10 UTC)

预报

该预报发布于2小时和8分钟前的21:02 UTC
预报有效从23日的 21点(UTC)到 24日的 24点(UTC)
风速8节,风向东转东北
能見度: 10公里
散云层高于5000英尺
散云层高于25000英尺
从 24日的 0200点(UTC)
风速3节,风向多变
能見度: 10公里
多云层高于12000英尺
从 24日的 1000点(UTC)
风速5节,风向西北
能見度: 10公里
多云层高于12000英尺
从 24日的 1600点(UTC)
风速10节,风向北转东北
能見度: 10公里
少量云层高于4500英尺
散云层高于15000英尺

TAF: KORD 232102Z 2321/2424 06008KT P6SM SCT050 SCT250 FM240200 VRB03KT P6SM BKN120 FM241000 32005KT P6SM BKN120 FM241600 03010KT P6SM FEW045 SCT150

超过4000个机场的气象观测和天气预报(METAR&TAF报告)。

可查询的气象台以黄色和红色小点在地图上表示。

将鼠标移到小点上方,可查看气象台名称。

然后点击查看天气观测和预报。

如需切换地图:点击带黑十字的绿色按钮放大地图;点击带横线的绿色按钮缩小地图;或者点击绿色箭头查看邻近地区的地图。


METAR-TAF: